createdAt,value
2018-10-19T00:00:54.746Z,60441.58
2018-10-19T00:03:22.925Z,60472.07
2018-10-19T00:05:51.132Z,60457.84
2018-10-19T00:08:19.287Z,60483.25
2018-10-19T00:10:47.475Z,60481.21
2018-10-19T00:13:15.702Z,60478.16
2018-10-19T00:15:43.919Z,60484.26
2018-10-19T00:18:12.104Z,60477.15
2018-10-19T00:20:40.303Z,60474.10
2018-10-19T00:23:08.661Z,60463.94
2018-10-19T00:25:36.858Z,60477.15
2018-10-19T00:28:05.044Z,60474.10
2018-10-19T00:30:33.254Z,60478.16
2018-10-19T00:33:01.546Z,60497.47
2018-10-19T00:35:29.811Z,60485.28
2018-10-19T00:37:58.884Z,60484.26
2018-10-19T00:40:27.054Z,60448.70
2018-10-19T00:42:55.239Z,60470.04
2018-10-19T00:45:53.973Z,60483.25
2018-10-19T00:48:22.147Z,60486.29
2018-10-19T00:50:50.380Z,60464.96
2018-10-19T00:53:18.561Z,60483.25
2018-10-19T00:55:46.743Z,60454.79
2018-10-19T00:58:14.945Z,60466.99
2018-10-19T01:00:43.399Z,60473.09
2018-10-19T01:03:11.767Z,60470.04
2018-10-19T01:05:40.671Z,60497.47
2018-10-19T01:08:09.590Z,60463.94
2018-10-19T01:10:37.840Z,60478.16
2018-10-19T01:13:06.330Z,60495.44
2018-10-19T01:15:34.519Z,60472.07
2018-10-19T01:18:02.685Z,60481.21
2018-10-19T01:20:30.912Z,60470.04
2018-10-19T01:22:59.125Z,60516.78
2018-10-19T01:25:27.286Z,60500.52
2018-10-19T01:27:55.507Z,60481.21
2018-10-19T01:30:23.696Z,60481.21
2018-10-19T01:32:51.905Z,60508.65
2018-10-19T01:35:20.049Z,60474.10
2018-10-19T01:37:48.231Z,60497.47
2018-10-19T01:40:16.428Z,60490.36
2018-10-19T01:42:44.603Z,60470.04
2018-10-19T01:45:13.490Z,60489.34
2018-10-19T01:47:42.328Z,60484.26
2018-10-19T01:50:11.379Z,60494.43
2018-10-19T01:52:40.294Z,60513.73
2018-10-19T01:55:08.515Z,60488.33
2018-10-19T01:57:36.727Z,60516.78
2018-10-19T02:00:05.205Z,60476.13
2018-10-19T02:02:33.401Z,60548.29
2018-10-19T02:05:01.655Z,60498.49
2018-10-19T02:07:29.799Z,60490.36
2018-10-19T02:09:58.027Z,60470.04
2018-10-19T02:12:26.240Z,60506.62
2018-10-19T02:14:54.549Z,60473.09
2018-10-19T02:17:22.715Z,60499.50
2018-10-19T02:19:50.911Z,60522.88
2018-10-19T02:22:19.127Z,60487.31
2018-10-19T02:24:47.369Z,60514.75
2018-10-19T02:27:15.644Z,60468.00
2018-10-19T02:29:43.759Z,60485.28
2018-10-19T02:32:11.950Z,60494.43
2018-10-19T02:34:40.128Z,60507.64
2018-10-19T02:37:08.554Z,60513.73
2018-10-19T02:39:36.749Z,60472.07
2018-10-19T02:42:05.163Z,60484.26
2018-10-19T02:44:33.355Z,60481.21
2018-10-19T02:47:01.603Z,60488.33
2018-10-19T02:49:29.736Z,60498.49
2018-10-19T02:51:57.925Z,60488.33
2018-10-19T02:54:26.111Z,60479.18
2018-10-19T02:56:54.330Z,60502.55
2018-10-19T02:59:22.476Z,60484.26
2018-10-19T03:01:50.658Z,60484.26
2018-10-19T03:04:18.852Z,60480.20
2018-10-19T03:06:47.030Z,60484.26
2018-10-19T03:09:15.293Z,60520.85
2018-10-19T03:11:43.461Z,60474.10
2018-10-19T03:14:11.639Z,60479.18
2018-10-19T03:16:39.823Z,60471.05
2018-10-19T03:19:08.048Z,60478.16
2018-10-19T03:21:36.255Z,60509.67
2018-10-19T03:24:04.431Z,60491.38
2018-10-19T03:26:32.655Z,60486.29
2018-10-19T03:29:00.868Z,60482.23
2018-10-19T03:31:29.023Z,60513.73
2018-10-19T03:33:57.215Z,60501.54
2018-10-19T03:36:25.394Z,60500.52
2018-10-19T03:38:53.605Z,60486.29
2018-10-19T03:41:21.917Z,60471.05
2018-10-19T03:43:50.120Z,60483.25
2018-10-19T03:46:18.356Z,60484.26
2018-10-19T03:48:46.575Z,60477.15
2018-10-19T03:51:14.961Z,60485.28
2018-10-19T03:53:49.199Z,60498.49
2018-10-19T03:56:17.395Z,60501.54
2018-10-19T03:58:45.579Z,60487.31
2018-10-19T04:01:13.775Z,60462.92
2018-10-19T04:03:42.107Z,60493.41
2018-10-19T04:06:10.239Z,60482.23
2018-10-19T04:08:38.436Z,60513.73
2018-10-19T04:11:06.683Z,60487.31
2018-10-19T04:13:34.803Z,60481.21
2018-10-19T04:16:02.975Z,60481.21
2018-10-19T04:18:31.135Z,60494.43
2018-10-19T04:20:59.355Z,60508.65
2018-10-19T04:23:27.544Z,60478.16
2018-10-19T04:25:55.730Z,60483.25
2018-10-19T04:28:23.920Z,60486.29
2018-10-19T04:30:52.103Z,60493.41
2018-10-19T04:33:20.302Z,60454.79
2018-10-19T04:35:48.484Z,60481.21
2018-10-19T04:38:16.671Z,60506.62
2018-10-19T04:40:44.846Z,60493.41
2018-10-19T04:43:13.037Z,60495.44
2018-10-19T04:45:41.211Z,60497.47
2018-10-19T04:48:09.392Z,60485.28
2018-10-19T04:50:37.568Z,60483.25
2018-10-19T04:53:05.789Z,60496.46
2018-10-19T04:55:33.919Z,60468.00
2018-10-19T04:58:02.106Z,60509.67
2018-10-19T05:00:30.295Z,60483.25
2018-10-19T05:02:58.499Z,60511.70
2018-10-19T05:05:26.884Z,60486.29
2018-10-19T05:07:54.996Z,60487.31
2018-10-19T05:10:23.130Z,60484.26
2018-10-19T05:12:51.337Z,60503.57
2018-10-19T05:15:19.507Z,60484.26
2018-10-19T05:17:47.702Z,60495.44
2018-10-19T05:20:16.052Z,60493.41
2018-10-19T05:22:44.132Z,60484.26
2018-10-19T05:25:12.999Z,60506.62
2018-10-19T05:27:41.315Z,60492.39
2018-10-19T05:30:11.404Z,60493.41
2018-10-19T05:32:40.206Z,60471.05
2018-10-19T05:35:08.470Z,60492.39
2018-10-19T05:37:37.578Z,60497.47
2018-10-19T05:40:07.000Z,60475.12
2018-10-19T05:42:35.276Z,60480.20
2018-10-19T05:45:03.551Z,60484.26
2018-10-19T05:47:31.807Z,60502.55
2018-10-19T05:50:00.028Z,60477.15
2018-10-19T05:52:28.305Z,60511.70
2018-10-19T05:54:56.512Z,60474.10
2018-10-19T05:57:24.850Z,60488.33
2018-10-19T05:59:53.042Z,60485.28
2018-10-19T06:02:21.428Z,60485.28
2018-10-19T06:04:49.695Z,60471.05
2018-10-19T06:07:17.902Z,60495.44
2018-10-19T06:09:46.131Z,60506.62
2018-10-19T06:12:14.326Z,60483.25
2018-10-19T06:14:42.551Z,60514.75
2018-10-19T06:17:10.772Z,60474.10
2018-10-19T06:19:38.899Z,60475.12
2018-10-19T06:22:07.095Z,60494.43
2018-10-19T06:24:35.276Z,60498.49
2018-10-19T06:27:03.469Z,60494.43
2018-10-19T06:29:31.639Z,60497.47
2018-10-19T06:31:59.838Z,60477.15
2018-10-19T06:34:28.008Z,60472.07
2018-10-19T06:36:56.176Z,60503.57
2018-10-19T06:39:24.344Z,60503.57
2018-10-19T06:41:52.707Z,60493.41
2018-10-19T06:44:20.879Z,60498.49
2018-10-19T06:46:49.130Z,60485.28
2018-10-19T06:49:17.232Z,60471.05
2018-10-19T06:51:46.511Z,60481.21
2018-10-19T06:54:14.724Z,60468.00
2018-10-19T06:56:42.959Z,60512.72
2018-10-19T06:59:11.251Z,60509.67
2018-10-19T07:01:39.312Z,60469.02
2018-10-19T07:04:07.507Z,60482.23
2018-10-19T07:06:35.691Z,60485.28
2018-10-19T07:09:05.019Z,60486.29
2018-10-19T07:11:33.332Z,60490.36
2018-10-19T07:14:01.540Z,60466.99
2018-10-19T07:16:29.684Z,60485.28
2018-10-19T07:18:57.877Z,60479.18
2018-10-19T07:21:26.039Z,60482.23
2018-10-19T07:23:54.292Z,60507.64
2018-10-19T07:26:22.483Z,60477.15
2018-10-19T07:28:50.709Z,60495.44
2018-10-19T07:31:18.931Z,60509.67
2018-10-19T07:33:47.386Z,60472.07
2018-10-19T07:36:16.269Z,60495.44
2018-10-19T07:38:44.400Z,60473.09
2018-10-19T07:41:12.638Z,60496.46
2018-10-19T07:43:40.797Z,60461.91
2018-10-19T07:46:09.036Z,60479.18
2018-10-19T07:48:37.305Z,60482.23
2018-10-19T07:51:05.731Z,60483.25
2018-10-19T07:53:33.934Z,60484.26
2018-10-19T07:56:02.222Z,60471.05
2018-10-19T07:58:30.360Z,60477.15
2018-10-19T08:00:58.592Z,60484.26
2018-10-19T08:03:26.747Z,60464.96
2018-10-19T08:05:54.980Z,60489.34
2018-10-19T08:08:23.176Z,60478.16
2018-10-19T08:10:51.339Z,60478.16
2018-10-19T08:13:19.546Z,60458.86
2018-10-19T08:15:47.749Z,60493.41
2018-10-19T08:18:15.927Z,60475.12
2018-10-19T08:20:44.132Z,60454.79
2018-10-19T08:23:12.340Z,60469.02
2018-10-19T08:25:40.556Z,60473.09
2018-10-19T08:28:08.743Z,60489.34
2018-10-19T08:30:36.974Z,60471.05
2018-10-19T08:33:05.371Z,60444.63
2018-10-19T08:35:33.562Z,60450.73
2018-10-19T08:38:01.881Z,60459.87
2018-10-19T08:40:30.075Z,60451.75
2018-10-19T08:42:58.270Z,60443.61
2018-10-19T08:45:26.495Z,60450.73
2018-10-19T08:47:54.669Z,60465.97
2018-10-19T08:50:22.891Z,60448.70
2018-10-19T08:52:51.099Z,60450.73
2018-10-19T08:55:19.288Z,60448.70
2018-10-19T08:57:47.579Z,60470.04
2018-10-19T09:00:15.819Z,60484.26
2018-10-19T09:02:43.930Z,60438.53
2018-10-19T09:05:12.439Z,60469.02
2018-10-19T09:07:40.527Z,60456.82
2018-10-19T09:10:09.045Z,60464.96
2018-10-19T09:12:37.323Z,60445.65
2018-10-19T09:15:06.572Z,60465.97
2018-10-19T09:17:34.752Z,60463.94
2018-10-19T09:20:02.953Z,60438.53
2018-10-19T09:22:31.162Z,60426.34
2018-10-19T09:24:59.352Z,60469.02
2018-10-19T09:27:27.528Z,60443.61
2018-10-19T09:29:55.720Z,60447.68
2018-10-19T09:32:23.909Z,60421.26
2018-10-19T09:34:52.104Z,60416.18
2018-10-19T09:37:20.291Z,60419.23
2018-10-19T09:39:48.517Z,60428.37
2018-10-19T09:42:16.705Z,60430.40
2018-10-19T09:44:44.904Z,60434.47
2018-10-19T09:47:13.139Z,60420.24
2018-10-19T09:49:41.268Z,60422.27
2018-10-19T09:52:09.480Z,60413.13
2018-10-19T09:54:37.662Z,60426.34
2018-10-19T09:57:05.920Z,60435.48
2018-10-19T09:59:34.093Z,60417.20
2018-10-19T10:02:02.447Z,60425.32
2018-10-19T10:04:30.586Z,60396.87
2018-10-19T10:06:58.765Z,60418.21
2018-10-19T10:09:26.952Z,60418.21
2018-10-19T10:11:55.165Z,60395.86
2018-10-19T10:14:23.360Z,60387.72
2018-10-19T10:16:51.560Z,60372.48
2018-10-19T10:19:19.779Z,60373.50
2018-10-19T10:21:47.966Z,60371.46
2018-10-19T10:24:16.186Z,60373.50
2018-10-19T10:26:44.434Z,60364.35
2018-10-19T10:29:12.697Z,60369.43
2018-10-19T10:31:40.919Z,60367.40
2018-10-19T10:34:09.186Z,60340.98
2018-10-19T10:36:37.399Z,60336.91
2018-10-19T10:39:09.230Z,60364.35
2018-10-19T10:41:37.504Z,60366.39
2018-10-19T10:44:05.756Z,60342.00
2018-10-19T10:46:33.935Z,60358.25
2018-10-19T10:49:02.197Z,60349.11
2018-10-19T10:51:30.353Z,60349.11
2018-10-19T10:53:58.535Z,60314.56
2018-10-19T10:56:26.731Z,60338.95
2018-10-19T10:58:54.940Z,60343.01
2018-10-19T11:01:23.156Z,60324.72
2018-10-19T11:03:51.411Z,60351.14
2018-10-19T11:06:19.600Z,60324.72
2018-10-19T11:08:47.790Z,60335.90
2018-10-19T11:11:16.238Z,60323.71
2018-10-19T11:13:44.842Z,60353.18
2018-10-19T11:16:13.943Z,60320.66
2018-10-19T11:18:42.191Z,60319.64
2018-10-19T11:21:10.527Z,60304.40
2018-10-19T11:23:38.724Z,60342.00
2018-10-19T11:26:07.052Z,60316.59
2018-10-19T11:28:35.300Z,60344.03
2018-10-19T11:31:05.757Z,60333.87
2018-10-19T11:33:34.039Z,60334.88
2018-10-19T11:36:03.278Z,60335.90
2018-10-19T11:38:32.631Z,60333.87
2018-10-19T11:41:02.458Z,60336.91
2018-10-19T11:43:30.791Z,60370.45
2018-10-19T11:45:59.872Z,60352.16
2018-10-19T11:48:28.361Z,60340.98
2018-10-19T11:50:57.676Z,60360.29
2018-10-19T11:53:27.472Z,60342.00
2018-10-19T11:55:56.611Z,60338.95
2018-10-19T11:58:25.852Z,60347.08
2018-10-19T12:00:54.412Z,60359.27
2018-10-19T12:03:23.052Z,60304.40
2018-10-19T12:05:51.798Z,60321.67
2018-10-19T12:08:20.308Z,60349.11
2018-10-19T12:10:48.894Z,60338.95
2018-10-19T12:13:18.175Z,60330.82
2018-10-19T12:15:46.475Z,60325.74
2018-10-19T12:18:15.365Z,60356.22
2018-10-19T12:20:43.850Z,60328.79
2018-10-19T12:23:12.748Z,60348.09
2018-10-19T12:25:41.300Z,60370.45
2018-10-19T12:28:10.432Z,60344.03
2018-10-19T12:30:39.390Z,60347.08
2018-10-19T12:33:07.881Z,60329.80
2018-10-19T12:35:36.357Z,60304.40
2018-10-19T12:38:05.134Z,60344.03
2018-10-19T12:40:33.349Z,60340.98
2018-10-19T12:43:01.676Z,60332.85
2018-10-19T12:46:44.845Z,60332.85
2018-10-19T12:49:14.635Z,60331.84
2018-10-19T12:51:42.664Z,60344.03
2018-10-19T12:54:10.886Z,60367.40
2018-10-19T12:56:39.109Z,60355.21
2018-10-19T12:59:07.579Z,60326.75
2018-10-19T13:01:35.957Z,60352.16
2018-10-19T13:04:04.600Z,60334.88
2018-10-19T13:06:33.401Z,60322.69
2018-10-19T13:09:01.749Z,60356.22
2018-10-19T13:11:30.005Z,60344.03
2018-10-19T13:13:58.392Z,60349.11
2018-10-19T13:16:26.720Z,60331.84
2018-10-19T13:18:55.157Z,60334.88
2018-10-19T13:21:24.271Z,60355.21
2018-10-19T13:23:53.507Z,60319.64
2018-10-19T13:26:21.734Z,60351.14
2018-10-19T13:28:50.212Z,60358.25
2018-10-19T13:31:18.700Z,60349.11
2018-10-19T13:33:47.187Z,60354.19
2018-10-19T13:36:15.524Z,60348.09
2018-10-19T13:38:43.915Z,60344.03
2018-10-19T13:41:12.395Z,60344.03
2018-10-19T13:43:42.165Z,60354.19
2018-10-19T13:46:10.373Z,60361.30
2018-10-19T13:48:39.542Z,60365.37
2018-10-19T13:51:07.839Z,60359.27
2018-10-19T13:53:36.630Z,60366.39
2018-10-19T13:56:04.826Z,60365.37
2018-10-19T13:58:33.085Z,60380.61
2018-10-19T14:01:01.244Z,60340.98
2018-10-19T14:03:29.416Z,60376.55
2018-10-19T14:05:57.587Z,60353.18
2018-10-19T14:08:25.809Z,60364.35
2018-10-19T14:10:54.028Z,60360.29
2018-10-19T14:13:22.194Z,60357.24
2018-10-19T14:15:50.416Z,60356.22
2018-10-19T14:18:18.627Z,60363.34
2018-10-19T14:20:46.915Z,60367.40
2018-10-19T14:23:15.232Z,60356.22
2018-10-19T14:25:43.312Z,60351.14
2018-10-19T14:28:11.500Z,60348.09
2018-10-19T14:30:39.692Z,60357.24
2018-10-19T14:33:09.049Z,60374.52
2018-10-19T14:35:37.283Z,60378.58
2018-10-19T14:38:05.818Z,60355.21
2018-10-19T14:40:36.294Z,60381.63
2018-10-19T14:43:04.696Z,60369.43
2018-10-19T14:45:32.879Z,60388.74
2018-10-19T14:48:01.096Z,60372.48
2018-10-19T14:50:29.325Z,60361.30
2018-10-19T14:52:57.561Z,60369.43
2018-10-19T14:55:25.750Z,60360.29
2018-10-19T14:57:55.063Z,60379.59
2018-10-19T15:00:24.144Z,60397.89
2018-10-19T15:02:52.348Z,60380.61
2018-10-19T15:05:20.842Z,60376.55
2018-10-19T15:07:49.088Z,60394.84
2018-10-19T15:10:19.712Z,60374.52
2018-10-19T15:12:47.767Z,60359.27
2018-10-19T15:15:17.311Z,60345.04
2018-10-19T15:17:45.736Z,60393.82
2018-10-19T15:20:14.408Z,60366.39
2018-10-19T15:22:42.621Z,60376.55
2018-10-19T15:25:11.265Z,60380.61
2018-10-19T15:27:40.467Z,60363.34
2018-10-19T15:30:10.034Z,60375.53
2018-10-19T15:32:38.148Z,60355.21
2018-10-19T15:35:07.026Z,60387.72
2018-10-19T15:37:35.199Z,60360.29
2018-10-19T15:40:03.443Z,60357.24
2018-10-19T15:42:31.635Z,60375.53
2018-10-19T15:44:59.861Z,60377.56
2018-10-19T15:47:31.403Z,60360.29
2018-10-19T15:49:59.604Z,60348.09
2018-10-19T15:52:28.244Z,60377.56
2018-10-19T15:54:56.422Z,60374.52
2018-10-19T15:57:24.632Z,60379.59
2018-10-19T15:59:52.842Z,60372.48
2018-10-19T16:02:20.975Z,60358.25
2018-10-19T16:04:49.737Z,60378.58
2018-10-19T16:07:18.095Z,60396.87
2018-10-19T16:09:46.455Z,60376.55
2018-10-19T16:12:14.711Z,60378.58
2018-10-19T16:14:42.892Z,60399.92
2018-10-19T16:17:11.096Z,60386.71
2018-10-19T16:19:39.303Z,60376.55
2018-10-19T16:22:07.791Z,60374.52
2018-10-19T16:24:36.067Z,60391.79
2018-10-19T16:27:04.447Z,60364.35
2018-10-19T16:29:32.555Z,60391.79
2018-10-19T16:32:00.735Z,60379.59
2018-10-19T16:34:29.152Z,60379.59
2018-10-19T16:36:57.336Z,60380.61
2018-10-19T16:39:25.513Z,60376.55
2018-10-19T16:41:53.753Z,60395.86
2018-10-19T16:44:21.933Z,60406.02
2018-10-19T16:46:50.135Z,60395.86
2018-10-19T16:49:18.320Z,60385.69
2018-10-19T16:51:46.518Z,60397.89
2018-10-19T16:54:14.769Z,60387.72
2018-10-19T16:56:42.964Z,60412.11
2018-10-19T16:59:11.143Z,60408.05
2018-10-19T17:01:39.355Z,60392.80
2018-10-19T17:04:07.867Z,60385.69
2018-10-19T17:06:36.044Z,60416.18
2018-10-19T17:09:07.179Z,60407.03
2018-10-19T17:11:35.320Z,60394.84
2018-10-19T17:14:03.625Z,60415.16
2018-10-19T17:16:31.796Z,60400.93
2018-10-19T17:19:00.003Z,60397.89
2018-10-19T17:21:28.143Z,60438.53
2018-10-19T17:23:56.481Z,60399.92
2018-10-19T17:26:24.521Z,60407.03
2018-10-19T17:28:52.841Z,60417.20
2018-10-19T17:31:21.009Z,60393.82
2018-10-19T17:33:49.465Z,60401.95
2018-10-19T17:36:17.602Z,60388.74
2018-10-19T17:38:47.592Z,60407.03
2018-10-19T17:41:16.413Z,60388.74
2018-10-19T17:43:45.727Z,60414.14
2018-10-19T17:46:16.146Z,60408.05
2018-10-19T17:48:44.830Z,60397.89
2018-10-19T17:51:13.174Z,60412.11
2018-10-19T17:53:41.500Z,60427.36
2018-10-19T17:56:09.777Z,60408.05
2018-10-19T17:58:38.063Z,60403.98
2018-10-19T18:01:07.467Z,60430.40
2018-10-19T18:03:35.720Z,60405.00
2018-10-19T18:06:04.031Z,60391.79
2018-10-19T18:08:32.159Z,60411.10
2018-10-19T18:11:00.558Z,60397.89
2018-10-19T18:13:28.821Z,60421.26
2018-10-19T18:15:57.232Z,60411.10
2018-10-19T18:18:25.382Z,60421.26
2018-10-19T18:20:53.576Z,60414.14
2018-10-19T18:23:22.146Z,60406.02
2018-10-19T18:25:49.988Z,60396.87
2018-10-19T18:28:18.175Z,60423.29
2018-10-19T18:30:46.367Z,60418.21
2018-10-19T18:33:14.546Z,60422.27
2018-10-19T18:35:42.741Z,60407.03
2018-10-19T18:38:10.943Z,60388.74
2018-10-19T18:40:39.145Z,60409.07
2018-10-19T18:43:07.391Z,60418.21
2018-10-19T18:45:35.624Z,60420.24
2018-10-19T18:48:03.874Z,60410.08
2018-10-19T18:50:32.067Z,60424.31
2018-10-19T18:53:00.246Z,60414.14
2018-10-19T18:55:28.427Z,60420.24
2018-10-19T18:57:56.621Z,60419.23
2018-10-19T19:00:24.863Z,60398.90
2018-10-19T19:02:53.047Z,60419.23
2018-10-19T19:05:21.262Z,60401.95
2018-10-19T19:07:49.451Z,60403.98
2018-10-19T19:10:17.655Z,60421.26
2018-10-19T19:12:45.879Z,60411.10
2018-10-19T19:15:14.080Z,60400.93
2018-10-19T19:17:42.272Z,60398.90
2018-10-19T19:20:15.944Z,60383.66
2018-10-19T19:22:44.175Z,60413.13
2018-10-19T19:25:17.701Z,60394.84
2018-10-19T19:27:45.928Z,60408.05
2018-10-19T19:30:14.152Z,60436.50
2018-10-19T19:32:47.719Z,60420.24
2018-10-19T19:35:16.039Z,60391.79
2018-10-19T19:37:44.127Z,60398.90
2018-10-19T19:40:12.369Z,60420.24
2018-10-19T19:42:47.359Z,60411.10
2018-10-19T19:45:15.840Z,60420.24
2018-10-19T19:47:49.388Z,60413.13
2018-10-19T19:50:17.601Z,60409.07
2018-10-19T19:52:45.795Z,60440.57
2018-10-19T19:55:14.002Z,60444.63
2018-10-19T19:57:42.208Z,60403.98
2018-10-19T20:00:10.404Z,60426.34
2018-10-19T20:02:38.620Z,60408.05
2018-10-19T20:05:07.621Z,60435.48
2018-10-19T20:07:35.963Z,60414.14
2018-10-19T20:10:04.404Z,60422.27
2018-10-19T20:12:32.620Z,60439.55
2018-10-19T20:15:00.804Z,60419.23
2018-10-19T20:17:29.010Z,60408.05
2018-10-19T20:19:57.198Z,60422.27
2018-10-19T20:22:25.392Z,60412.11
2018-10-19T20:24:53.612Z,60416.18
2018-10-19T20:27:21.815Z,60428.37
2018-10-19T20:29:50.044Z,60419.23
2018-10-19T20:32:18.379Z,60424.31
2018-10-19T20:34:46.453Z,60417.20
2018-10-19T20:37:14.659Z,60425.32
2018-10-19T20:39:42.845Z,60430.40
2018-10-19T20:42:11.036Z,60438.53
2018-10-19T20:44:39.249Z,60425.32
2018-10-19T20:47:07.519Z,60453.78
2018-10-19T20:49:35.639Z,60424.31
2018-10-19T20:52:03.843Z,60427.36
2018-10-19T20:54:32.090Z,60423.29
2018-10-19T20:57:00.271Z,60434.47
2018-10-19T20:59:28.466Z,60428.37
2018-10-19T21:01:56.695Z,60434.47
2018-10-19T21:04:24.852Z,60451.75
2018-10-19T21:06:53.261Z,60458.86
2018-10-19T21:09:21.450Z,60434.47
2018-10-19T21:11:49.647Z,60435.48
2018-10-19T21:14:17.839Z,60427.36
2018-10-19T21:16:46.048Z,60418.21
2018-10-19T21:19:14.276Z,60439.55
2018-10-19T21:21:49.059Z,60432.44
2018-10-19T21:24:17.270Z,60454.79
2018-10-19T21:26:45.464Z,60424.31
2018-10-19T21:29:13.703Z,60420.24
2018-10-19T21:31:41.850Z,60435.48
2018-10-19T21:34:10.011Z,60448.70
2018-10-19T21:36:38.267Z,60449.71
2018-10-19T21:39:08.525Z,60433.45
2018-10-19T21:41:36.847Z,60433.45
2018-10-19T21:44:05.277Z,60438.53
2018-10-19T21:46:33.432Z,60426.34
2018-10-19T21:49:01.628Z,60441.58
2018-10-19T21:51:30.041Z,60422.27
2018-10-19T21:53:58.229Z,60434.47
2018-10-19T21:56:26.479Z,60445.65
2018-10-19T21:58:54.675Z,60458.86
2018-10-19T22:01:22.836Z,60469.02
2018-10-19T22:03:51.303Z,60443.61
2018-10-19T22:06:19.526Z,60456.82
2018-10-19T22:08:47.720Z,60440.57
2018-10-19T22:11:16.035Z,60428.37
2018-10-19T22:13:44.063Z,60458.86
2018-10-19T22:16:12.252Z,60440.57
2018-10-19T22:18:40.412Z,60454.79
2018-10-19T22:21:08.606Z,60463.94
2018-10-19T22:23:36.849Z,60443.61
2018-10-19T22:26:05.301Z,60433.45
2018-10-19T22:28:33.544Z,60447.68
2018-10-19T22:31:01.708Z,60442.60
2018-10-19T22:33:29.876Z,60440.57
2018-10-19T22:35:58.066Z,60455.81
2018-10-19T22:38:26.248Z,60451.75
2018-10-19T22:40:54.471Z,60466.99
2018-10-19T22:43:22.815Z,60445.65
2018-10-19T22:45:50.990Z,60459.87
2018-10-19T22:48:19.166Z,60458.86
2018-10-19T22:50:47.388Z,60458.86
2018-10-19T22:53:15.616Z,60449.71
2018-10-19T22:55:43.804Z,60456.82
2018-10-19T22:58:11.982Z,60446.66
2018-10-19T23:00:40.175Z,60451.75
2018-10-19T23:17:25.023Z,60463.94
2018-10-19T23:19:53.209Z,60483.25
2018-10-19T23:22:21.377Z,60477.15
2018-10-19T23:24:49.572Z,60453.78
2018-10-19T23:27:17.735Z,60497.47
2018-10-19T23:29:45.923Z,60445.65
2018-10-19T23:32:14.111Z,60468.00
2018-10-19T23:34:42.294Z,60458.86
2018-10-19T23:37:10.582Z,60474.10
2018-10-19T23:39:38.676Z,60482.23
2018-10-19T23:42:06.867Z,60453.78
2018-10-19T23:44:35.063Z,60475.12
2018-10-19T23:47:03.255Z,60463.94
2018-10-19T23:49:31.440Z,60470.04
2018-10-19T23:51:59.635Z,60494.43
2018-10-19T23:54:27.824Z,60482.23
2018-10-19T23:56:56.016Z,60500.52
2018-10-19T23:59:24.204Z,60481.21
